Time;durP1;ratioP1;P1;durP2;ratioP2;P2;SDS_P1;SDS_P2;PMS_P1;PMS_P2;Temp;Humidity;BMP_temperature;BMP_pressure;BME280_temperature;BME280_humidity;BME280_pressure;Samples;Min_cycle;Max_cycle;Signal;HPM_P1;HPM_P2
2023/04/22 00:00:08;;;;;;;8.57;7.67;;;13.60;99.90;;;;;;4941888;28;20540;-83
2023/04/22 00:02:41;;;;;;;10.30;9.30;;;13.60;99.90;;;;;;4943259;29;20461;-83
2023/04/22 00:05:12;;;;;;;9.00;8.00;;;13.60;99.90;;;;;;4942177;28;20484;-83
2023/04/22 00:07:44;;;;;;;9.10;8.07;;;13.70;99.90;;;;;;4945011;29;20489;-82
2023/04/22 00:10:16;;;;;;;8.27;7.27;;;13.70;99.90;;;;;;4943377;28;20451;-84
2023/04/22 00:12:43;;;;;;;8.37;7.57;;;13.60;99.90;;;;;;4944779;29;20508;-82
2023/04/22 00:15:12;;;;;;;7.40;6.70;;;13.40;99.90;;;;;;4952584;29;20474;-81
2023/04/22 00:17:44;;;;;;;7.87;6.77;;;13.40;99.90;;;;;;4965146;28;20488;-82
2023/04/22 00:20:14;;;;;;;7.47;6.27;;;13.30;99.90;;;;;;4958298;28;20619;-83
2023/04/22 00:22:41;;;;;;;7.57;6.33;;;13.30;99.90;;;;;;4980936;28;20539;-83
2023/04/22 00:25:09;;;;;;;19.70;15.90;;;13.20;99.90;;;;;;4977290;28;20461;-84
2023/04/22 00:27:36;;;;;;;15.97;14.27;;;13.20;99.90;;;;;;4946883;29;20820;-83
2023/04/22 00:30:04;;;;;;;11.53;10.40;;;13.60;99.90;;;;;;4948997;29;20461;-83
2023/04/22 00:32:31;;;;;;;23.30;15.93;;;13.50;99.90;;;;;;4940710;28;20449;-82
2023/04/22 00:34:58;;;;;;;29.30;21.77;;;13.50;99.90;;;;;;4947667;28;20469;-81
2023/04/22 00:37:25;;;;;;;23.00;15.57;;;13.60;99.90;;;;;;4943094;28;20484;-82
2023/04/22 00:39:53;;;;;;;20.43;13.13;;;13.50;99.90;;;;;;4941134;28;20488;-82
2023/04/22 00:42:20;;;;;;;12.37;9.23;;;13.40;99.90;;;;;;4958235;28;20461;-84
2023/04/22 00:44:49;;;;;;;10.40;8.33;;;13.40;99.90;;;;;;4926250;29;21804;-82
2023/04/22 00:47:17;;;;;;;7.70;6.90;;;13.40;99.90;;;;;;4910936;29;20465;-83
2023/04/22 00:49:46;;;;;;;8.00;7.20;;;13.60;99.90;;;;;;4943073;28;21009;-82
2023/04/22 00:52:13;;;;;;;7.50;6.80;;;13.50;99.90;;;;;;4938828;28;20469;-82
2023/04/22 00:54:40;;;;;;;14.60;13.17;;;13.40;99.90;;;;;;4938886;29;20484;-83
2023/04/22 00:57:07;;;;;;;16.07;14.00;;;13.30;99.90;;;;;;4942819;28;20941;-82
2023/04/22 00:59:34;;;;;;;18.70;14.80;;;13.40;99.90;;;;;;4942940;28;21098;-82
2023/04/22 01:02:02;;;;;;;52.00;27.53;;;13.40;99.90;;;;;;4943177;28;20457;-82
2023/04/22 01:04:30;;;;;;;13.23;9.83;;;13.40;99.90;;;;;;4948327;28;20469;-82
2023/04/22 01:06:57;;;;;;;8.97;8.07;;;13.40;99.90;;;;;;4942026;28;20469;-83
2023/04/22 01:09:24;;;;;;;6.93;6.23;;;13.40;99.90;;;;;;4940473;28;20460;-82
2023/04/22 01:11:51;;;;;;;6.97;6.20;;;13.30;99.90;;;;;;4938026;28;20468;-83
2023/04/22 01:14:18;;;;;;;7.20;6.10;;;13.10;99.90;;;;;;4939799;29;20564;-84
2023/04/22 01:16:45;;;;;;;169.30;59.77;;;13.00;99.90;;;;;;4946723;29;21106;-82
2023/04/22 01:19:12;;;;;;;11.80;8.23;;;13.10;99.90;;;;;;4939376;29;21040;-82
2023/04/22 01:21:44;;;;;;;8.97;7.73;;;13.30;99.90;;;;;;4939080;29;20489;-82
2023/04/22 01:24:10;;;;;;;76.20;28.13;;;13.20;99.90;;;;;;4939679;29;20461;-82
2023/04/22 01:26:37;;;;;;;98.53;36.83;;;13.20;99.90;;;;;;4940049;28;20468;-85
2023/04/22 01:29:05;;;;;;;34.33;15.63;;;13.20;99.90;;;;;;4941748;29;20480;-83
2023/04/22 01:31:33;;;;;;;8.87;6.70;;;13.10;99.90;;;;;;4941557;29;20473;-83
2023/04/22 01:34:00;;;;;;;5.43;4.80;;;13.10;99.90;;;;;;4938295;29;20465;-81
2023/04/22 01:36:31;;;;;;;6.57;4.93;;;13.00;99.90;;;;;;4936990;29;20536;-82
2023/04/22 01:39:01;;;;;;;5.47;4.97;;;13.00;99.90;;;;;;4942402;28;21356;-82
2023/04/22 01:41:29;;;;;;;5.77;5.17;;;12.90;99.90;;;;;;4940824;28;20489;-82
2023/04/22 01:43:59;;;;;;;6.20;5.60;;;12.80;99.90;;;;;;4970966;28;21251;-82
2023/04/22 01:46:26;;;;;;;5.70;5.20;;;12.90;99.90;;;;;;4942072;29;20548;-82
2023/04/22 01:48:53;;;;;;;4.93;4.47;;;12.80;99.90;;;;;;4943583;29;20457;-84
2023/04/22 01:51:20;;;;;;;5.13;4.63;;;13.00;99.90;;;;;;4945838;29;21045;-82
2023/04/22 01:53:48;;;;;;;5.00;4.60;;;13.00;99.90;;;;;;4952812;29;20492;-83
2023/04/22 01:56:16;;;;;;;4.83;4.33;;;13.00;99.90;;;;;;4952261;29;20457;-83
2023/04/22 01:58:43;;;;;;;5.13;4.63;;;12.90;99.90;;;;;;4951435;29;20539;-83
2023/04/22 02:01:14;;;;;;;8.60;4.97;;;13.00;99.90;;;;;;4982308;28;20485;-83
2023/04/22 02:03:41;;;;;;;5.00;4.50;;;13.10;99.90;;;;;;4951936;29;20484;-82
2023/04/22 02:06:09;;;;;;;4.20;3.80;;;12.90;99.90;;;;;;4952150;28;20489;-83
2023/04/22 02:08:37;;;;;;;4.00;3.70;;;12.90;99.90;;;;;;4985506;28;20484;-84
2023/04/22 02:11:08;;;;;;;5.33;4.83;;;13.00;99.90;;;;;;4946174;28;20457;-82
2023/04/22 02:13:38;;;;;;;4.30;3.90;;;13.10;99.90;;;;;;4951226;29;20496;-82
2023/04/22 02:16:06;;;;;;;3.93;3.60;;;13.10;99.90;;;;;;4947764;29;20464;-82
2023/04/22 02:18:45;;;;;;;3.83;3.40;;;13.20;99.90;;;;;;4944502;28;20499;-85
2023/04/22 02:21:22;;;;;;;3.67;3.37;;;13.20;99.90;;;;;;4977712;28;20584;-83
2023/04/22 02:23:53;;;;;;;4.53;3.70;;;13.30;99.90;;;;;;4946861;28;20464;-83
2023/04/22 02:26:29;;;;;;;3.77;3.53;;;13.30;99.90;;;;;;4957060;29;20429;-83
2023/04/22 02:28:59;;;;;;;3.60;3.30;;;13.30;99.90;;;;;;4962089;29;20451;-82
2023/04/22 02:31:30;;;;;;;5.93;3.53;;;13.20;99.90;;;;;;4963310;29;20464;-82
2023/04/22 02:33:57;;;;;;;4.33;3.97;;;13.10;99.90;;;;;;4965635;28;20484;-82
2023/04/22 02:36:33;;;;;;;8.23;4.80;;;13.10;99.90;;;;;;4964902;29;20449;-83
2023/04/22 02:39:06;;;;;;;4.07;3.70;;;13.10;99.90;;;;;;4963024;29;20452;-82
2023/04/22 02:41:49;;;;;;;3.53;3.23;;;13.10;99.90;;;;;;4964945;29;21133;-81
2023/04/22 02:44:19;;;;;;;3.93;3.63;;;13.20;99.90;;;;;;4965345;28;20456;-82
2023/04/22 02:46:46;;;;;;;4.47;4.03;;;13.20;99.90;;;;;;4961129;28;20561;-82
2023/04/22 02:49:14;;;;;;;4.50;4.10;;;13.10;99.90;;;;;;4965816;28;20459;-82
2023/04/22 02:51:45;;;;;;;4.63;4.17;;;13.20;99.90;;;;;;4965152;28;20524;-84
2023/04/22 02:54:15;;;;;;;4.10;3.80;;;13.20;99.90;;;;;;4962512;28;20468;-82
2023/04/22 02:56:47;;;;;;;5.00;4.50;;;13.30;99.90;;;;;;4969880;28;20491;-83
2023/04/22 02:59:19;;;;;;;3.87;3.43;;;13.40;99.90;;;;;;4961171;29;20457;-83
2023/04/22 03:02:05;;;;;;;8.53;4.33;;;13.40;99.90;;;;;;4950988;28;20548;-81
2023/04/22 03:04:35;;;;;;;4.73;4.13;;;13.30;99.90;;;;;;4973122;28;20516;-84
2023/04/22 03:07:14;;;;;;;4.97;4.17;;;13.10;99.90;;;;;;4957137;28;20782;-84
2023/04/22 03:09:46;;;;;;;5.33;4.40;;;13.00;99.90;;;;;;4988673;28;20551;-84
2023/04/22 03:12:20;;;;;;;4.20;3.80;;;13.10;99.90;;;;;;4954689;29;20454;-83
2023/04/22 03:15:14;;;;;;;4.70;3.77;;;13.10;99.90;;;;;;4954634;28;20460;-82
2023/04/22 03:17:58;;;;;;;4.50;4.20;;;13.30;99.90;;;;;;4971792;28;20457;-82
2023/04/22 03:20:30;;;;;;;4.70;3.70;;;13.30;99.90;;;;;;4961520;28;20483;-81
2023/04/22 03:22:59;;;;;;;4.10;3.37;;;13.20;99.90;;;;;;4962367;28;20476;-81
2023/04/22 03:25:40;;;;;;;4.37;4.07;;;13.20;99.90;;;;;;4962438;29;20465;-85
2023/04/22 03:28:10;;;;;;;4.67;4.27;;;13.20;99.90;;;;;;4960792;28;20492;-81
2023/04/22 03:30:38;;;;;;;6.33;3.93;;;13.10;99.90;;;;;;4957944;28;20457;-83
2023/04/22 03:33:08;;;;;;;5.40;3.77;;;13.00;99.90;;;;;;4989922;28;20460;-85
2023/04/22 03:35:35;;;;;;;3.77;3.47;;;12.90;99.90;;;;;;4955011;29;20487;-82
2023/04/22 03:38:07;;;;;;;4.20;3.80;;;13.00;99.90;;;;;;4948965;29;20488;-83
2023/04/22 03:40:37;;;;;;;4.57;3.80;;;13.10;99.90;;;;;;4947935;29;20488;-82
2023/04/22 03:43:07;;;;;;;6.00;4.47;;;13.10;99.90;;;;;;4958461;28;20463;-83
2023/04/22 03:51:01;;;;;;;4.33;3.93;;;13.40;99.90;;;;;;4977712;28;20522;-81
2023/04/22 03:53:33;;;;;;;3.43;3.23;;;13.60;99.90;;;;;;4969549;28;20538;-83
2023/04/22 03:56:06;;;;;;;3.80;3.50;;;13.60;99.90;;;;;;5021347;23;20601;-83
2023/04/22 03:58:35;;;;;;;5.43;3.90;;;13.70;99.90;;;;;;4977690;28;20467;-82
2023/04/22 04:01:35;;;;;;;4.70;3.57;;;13.60;99.90;;;;;;5000964;28;20475;-82
2023/04/22 04:04:16;;;;;;;4.00;3.60;;;13.30;99.90;;;;;;4978918;28;20475;-83
2023/04/22 04:10:29;;;;;;;4.03;3.70;;;13.40;99.90;;;;;;4968385;28;20442;-82
2023/04/22 04:12:58;;;;;;;4.03;3.73;;;13.40;99.90;;;;;;4966825;28;20468;-82
2023/04/22 04:15:31;;;;;;;4.43;4.03;;;13.40;99.90;;;;;;4967701;28;21035;-83
2023/04/22 04:18:03;;;;;;;3.60;3.30;;;13.30;99.90;;;;;;4968121;28;20486;-83
2023/04/22 04:20:44;;;;;;;3.50;3.20;;;13.30;99.90;;;;;;4968641;28;20550;-84
2023/04/22 04:23:26;;;;;;;;;;;;;;;;;;;;;
2023/04/22 04:25:56;;;;;;;3.60;3.17;;;13.50;99.90;;;;;;4966011;28;20547;-80
2023/04/22 04:28:34;;;;;;;3.57;3.30;;;13.40;99.90;;;;;;4939565;28;20480;-83
2023/04/22 04:31:08;;;;;;;3.63;3.33;;;13.30;99.90;;;;;;4965982;28;20495;-83
2023/04/22 04:33:42;;;;;;;4.00;3.70;;;13.30;99.90;;;;;;4969156;28;20468;-83
2023/04/22 04:36:18;;;;;;;3.40;3.10;;;13.30;99.90;;;;;;4977445;28;20459;-83
2023/04/22 04:38:51;;;;;;;3.83;3.50;;;13.30;99.90;;;;;;4987335;28;20456;-85
2023/04/22 04:41:40;;;;;;;3.50;3.00;;;13.20;99.90;;;;;;4986115;28;20590;-82
2023/04/22 04:44:15;;;;;;;3.37;3.07;;;13.00;99.90;;;;;;4988535;28;20450;-81
2023/04/22 04:46:59;;;;;;;3.53;3.17;;;13.30;99.90;;;;;;4985775;28;20476;-84
2023/04/22 04:49:30;;;;;;;4.80;4.40;;;13.40;99.90;;;;;;4977334;28;20523;-82
2023/04/22 04:52:12;;;;;;;4.33;3.10;;;13.20;99.90;;;;;;4967423;28;20473;-83
2023/04/22 04:54:50;;;;;;;3.73;3.37;;;13.30;99.90;;;;;;4958607;28;20500;-82
2023/04/22 04:57:30;;;;;;;4.30;3.47;;;13.30;99.90;;;;;;4961821;28;20588;-82
2023/04/22 05:00:11;;;;;;;3.43;3.13;;;13.50;99.90;;;;;;4964851;28;20471;-83
2023/04/22 05:02:43;;;;;;;3.10;2.90;;;13.60;99.90;;;;;;4960923;28;20457;-82
2023/04/22 05:05:21;;;;;;;3.47;3.03;;;13.50;99.90;;;;;;4956560;28;20459;-82
2023/04/22 05:07:57;;;;;;;3.43;3.13;;;13.50;99.90;;;;;;4957649;28;20475;-82
2023/04/22 05:10:46;;;;;;;3.93;3.47;;;13.40;99.90;;;;;;4959275;28;20514;-83
2023/04/22 05:13:27;;;;;;;3.80;3.00;;;13.40;99.90;;;;;;4963160;28;20528;-84
2023/04/22 05:16:06;;;;;;;3.60;3.40;;;13.40;99.90;;;;;;4976126;28;20464;-81
2023/04/22 05:18:39;;;;;;;3.33;3.00;;;13.60;99.90;;;;;;4963715;28;20483;-82
2023/04/22 05:21:10;;;;;;;3.90;3.50;;;13.70;99.90;;;;;;4961177;28;20499;-82
2023/04/22 05:23:48;;;;;;;4.33;3.50;;;13.50;99.90;;;;;;4959023;28;20542;-82
2023/04/22 05:26:32;;;;;;;3.60;3.30;;;13.60;99.90;;;;;;4970302;28;20520;-82
2023/04/22 05:29:13;;;;;;;3.27;2.63;;;13.80;99.90;;;;;;4976410;28;20452;-82
2023/04/22 05:31:46;;;;;;;4.90;3.03;;;13.70;99.90;;;;;;4969784;28;20459;-80
2023/04/22 05:34:16;;;;;;;3.03;2.80;;;13.60;99.90;;;;;;4986422;28;20456;-82
2023/04/22 05:36:45;;;;;;;4.60;3.53;;;13.40;99.90;;;;;;4987714;28;20463;-83
2023/04/22 05:39:19;;;;;;;2.67;2.47;;;13.30;99.90;;;;;;4981176;28;20460;-83
2023/04/22 05:41:59;;;;;;;3.53;3.23;;;13.60;99.90;;;;;;4969514;28;21093;-83
2023/04/22 05:45:02;;;;;;;3.73;3.40;;;13.90;99.90;;;;;;4966292;28;20452;-83
2023/04/22 05:47:38;;;;;;;2.93;2.73;;;14.00;99.60;;;;;;4959658;28;20479;-82
2023/04/22 05:50:10;;;;;;;4.80;2.80;;;13.80;99.60;;;;;;4975831;28;20464;-83
2023/04/22 05:55:50;;;;;;;2.97;2.77;;;13.60;99.90;;;;;;4970778;28;20468;-83
2023/04/22 05:58:23;;;;;;;2.70;2.50;;;13.80;99.90;;;;;;4970376;28;20479;-83
2023/04/22 06:01:05;;;;;;;2.50;2.37;;;13.90;99.80;;;;;;4970088;28;20487;-82
2023/04/22 06:03:45;;;;;;;3.00;2.70;;;14.00;99.30;;;;;;4969281;28;20451;-83
2023/04/22 06:06:15;;;;;;;3.20;3.00;;;14.10;99.20;;;;;;4969224;28;20507;-83
2023/04/22 06:08:54;;;;;;;3.37;2.93;;;14.00;99.20;;;;;;4969719;28;20471;-81
2023/04/22 06:11:29;;;;;;;4.90;2.90;;;13.90;99.20;;;;;;4965951;28;20495;-81
2023/04/22 06:14:23;;;;;;;2.57;2.37;;;14.00;99.20;;;;;;4968285;28;20472;-82
2023/04/22 06:17:03;;;;;;;2.53;2.33;;;14.20;98.70;;;;;;4966587;28;20546;-83
2023/04/22 06:19:55;;;;;;;3.00;2.80;;;14.20;98.50;;;;;;4967321;28;20460;-83
2023/04/22 06:22:32;;;;;;;2.87;2.63;;;14.40;98.80;;;;;;4967076;28;20574;-82
2023/04/22 06:25:13;;;;;;;3.13;2.70;;;15.90;97.90;;;;;;4968341;28;20525;-83
2023/04/22 06:28:03;;;;;;;5.60;2.70;;;17.90;93.80;;;;;;4990029;28;20494;-84
2023/04/22 06:30:58;;;;;;;2.60;2.40;;;19.40;90.30;;;;;;4973728;28;22125;-84
2023/04/22 06:34:10;;;;;;;;;;;;;;;;;;;;;
2023/04/22 06:36:40;;;;;;;2.80;2.60;;;21.80;79.50;;;;;;4983955;28;20440;-84
2023/04/22 06:39:23;;;;;;;3.27;2.90;;;22.90;72.50;;;;;;5492917;23;20503;-83
2023/04/22 06:42:03;;;;;;;2.73;2.30;;;23.30;69.30;;;;;;4971124;28;20485;-82
2023/04/22 06:45:01;;;;;;;;;;;;;;;;;;;;;
2023/04/22 06:47:40;;;;;;;3.30;2.57;;;19.20;75.00;;;;;;4952575;28;20480;-83
2023/04/22 06:50:11;;;;;;;2.97;2.77;;;17.60;83.60;;;;;;4948711;28;20480;-83
2023/04/22 06:53:18;;;;;;;2.73;2.53;;;17.20;87.70;;;;;;4962024;28;20467;-84
2023/04/22 06:55:57;;;;;;;2.50;2.30;;;18.00;87.20;;;;;;4960393;28;20461;-82
2023/04/22 06:58:27;;;;;;;2.90;2.70;;;17.70;85.50;;;;;;4976310;28;20968;-83
2023/04/22 07:00:57;;;;;;;3.87;2.70;;;17.10;88.50;;;;;;4942350;28;20572;-82
2023/04/22 07:03:39;;;;;;;4.63;2.40;;;16.60;90.40;;;;;;4968651;28;20571;-81
2023/04/22 07:06:06;;;;;;;2.70;2.50;;;16.60;90.70;;;;;;4936827;28;21132;-84
2023/04/22 07:08:54;;;;;;;2.50;2.30;;;17.30;91.00;;;;;;4945640;29;20480;-82
2023/04/22 07:11:37;;;;;;;3.53;2.53;;;19.40;84.90;;;;;;4941598;28;20961;-81
2023/04/22 07:14:20;;;;;;;5.13;2.63;;;19.80;80.20;;;;;;4954165;28;20516;-81
2023/04/22 07:17:35;;;;;;;3.20;2.40;;;20.70;78.70;;;;;;4946713;28;20552;-82
2023/04/22 07:20:22;;;;;;;2.30;2.10;;;21.80;73.60;;;;;;4941441;28;20449;-82
2023/04/22 07:23:30;;;;;;;2.87;2.57;;;21.20;72.50;;;;;;4925161;28;20496;-83
2023/04/22 07:26:34;;;;;;;;;;;;;;;;;;;;;
2023/04/22 07:29:23;;;;;;;2.90;2.33;;;20.70;76.30;;;;;;4950540;28;20445;-82
2023/04/22 07:32:12;;;;;;;2.93;2.67;;;22.20;72.20;;;;;;4943665;28;20463;-82
2023/04/22 07:38:27;;;;;;;2.40;2.00;;;23.00;66.90;;;;;;4948988;28;20564;-83
2023/04/22 07:41:23;;;;;;;3.43;3.13;;;23.50;65.50;;;;;;4941844;28;20561;-82
2023/04/22 07:44:20;;;;;;;3.03;2.80;;;24.30;63.20;;;;;;4945478;28;20460;-83
2023/04/22 07:47:14;;;;;;;4.00;3.70;;;24.90;59.70;;;;;;4947613;28;20604;-84
2023/04/22 07:50:19;;;;;;;3.00;2.80;;;24.80;59.20;;;;;;4943248;28;21343;-83
2023/04/22 07:53:47;;;;;;;2.40;2.17;;;24.90;57.60;;;;;;4895588;29;20447;-81
2023/04/22 07:56:46;;;;;;;2.60;2.40;;;24.50;57.30;;;;;;4853506;29;21063;-83
2023/04/22 08:03:11;;;;;;;2.90;2.70;;;25.20;58.00;;;;;;4881623;29;20483;-84
2023/04/22 08:06:30;;;;;;;2.20;2.00;;;26.70;54.30;;;;;;4890433;29;20553;-83
2023/04/22 08:09:36;;;;;;;2.13;1.97;;;27.00;53.30;;;;;;4870467;29;20997;-82
2023/04/22 08:12:54;;;;;;;2.57;2.37;;;27.30;51.50;;;;;;4873622;29;20552;-84
2023/04/22 08:15:44;;;;;;;2.20;2.00;;;26.00;53.20;;;;;;4906312;29;20555;-85
2023/04/22 08:18:25;;;;;;;2.97;2.30;;;24.90;54.90;;;;;;4903095;29;20480;-84
2023/04/22 08:24:50;;;;;;;2.57;2.40;;;23.40;57.60;;;;;;4881789;29;20639;-82
2023/04/22 08:27:47;;;;;;;2.10;1.60;;;24.40;56.70;;;;;;4881412;29;20491;-83
2023/04/22 08:30:36;;;;;;;;;;;;;;;;;;;;;
2023/04/22 08:33:21;;;;;;;4.73;2.50;;;24.60;55.90;;;;;;4941215;28;20842;-83
2023/04/22 08:36:21;;;;;;;2.40;2.20;;;23.80;56.80;;;;;;4962830;28;20667;-82
2023/04/22 08:39:12;;;;;;;2.50;2.30;;;23.10;57.60;;;;;;4935243;28;20468;-83
2023/04/22 08:42:01;;;;;;;2.47;2.23;;;22.20;59.30;;;;;;4969729;28;20485;-82
2023/04/22 08:45:08;;;;;;;3.57;2.43;;;21.60;60.90;;;;;;4941162;28;20557;-82
2023/04/22 08:48:04;;;;;;;2.50;2.40;;;22.10;61.60;;;;;;4948632;28;20475;-83
2023/04/22 08:51:27;;;;;;;2.33;2.20;;;22.90;59.30;;;;;;4935070;28;20468;-83
2023/04/22 08:54:58;;;;;;;3.27;2.93;;;24.30;56.90;;;;;;4935579;28;20445;-82
2023/04/22 08:58:02;;;;;;;3.33;2.80;;;24.40;56.40;;;;;;4879846;29;20460;-83
2023/04/22 09:01:07;;;;;;;2.23;2.13;;;25.00;54.80;;;;;;4867606;29;20460;-82
2023/04/22 09:07:05;;;;;;;3.50;2.30;;;25.40;53.60;;;;;;4822820;29;21012;-82
2023/04/22 09:09:43;;;;;;;3.37;2.40;;;25.70;53.10;;;;;;4824528;29;20478;-82
2023/04/22 09:12:20;;;;;;;2.60;2.40;;;25.40;53.10;;;;;;4837603;29;20457;-82
2023/04/22 09:15:07;;;;;;;3.10;2.47;;;25.70;52.80;;;;;;4822133;29;20478;-82
2023/04/22 09:17:45;;;;;;;5.20;2.23;;;25.90;52.50;;;;;;4823623;29;20501;-80
2023/04/22 09:20:27;;;;;;;2.80;2.20;;;26.40;51.70;;;;;;4836073;29;20519;-82
2023/04/22 09:23:06;;;;;;;1.70;1.60;;;27.50;50.00;;;;;;4820846;29;20511;-84
2023/04/22 09:25:48;;;;;;;2.27;2.00;;;27.20;49.60;;;;;;4844123;29;20473;-83
2023/04/22 09:28:35;;;;;;;2.47;2.27;;;27.50;49.40;;;;;;4868064;29;20483;-82
2023/04/22 09:31:19;;;;;;;3.03;2.40;;;27.50;48.80;;;;;;4879723;29;20458;-82
2023/04/22 09:34:05;;;;;;;2.77;2.57;;;26.00;50.80;;;;;;4901157;29;20451;-81
2023/04/22 09:36:36;;;;;;;2.47;2.27;;;25.50;52.40;;;;;;4885270;29;20546;-83
2023/04/22 09:39:25;;;;;;;2.13;2.03;;;24.70;52.80;;;;;;4989670;28;20560;-83
2023/04/22 09:41:56;;;;;;;3.27;1.80;;;24.20;54.00;;;;;;4977033;28;20481;-82
2023/04/22 09:44:46;;;;;;;2.37;2.03;;;23.60;53.60;;;;;;4959391;28;20445;-84
2023/04/22 09:47:25;;;;;;;2.07;1.97;;;23.00;53.10;;;;;;4961230;28;20484;-83
2023/04/22 09:50:09;;;;;;;2.30;2.10;;;22.80;53.40;;;;;;4954088;28;20491;-84
2023/04/22 09:52:56;;;;;;;2.20;2.00;;;22.90;53.10;;;;;;4958193;28;20484;-83
2023/04/22 09:55:40;;;;;;;2.00;1.73;;;23.00;52.90;;;;;;4988634;28;20461;-84
2023/04/22 09:58:32;;;;;;;2.00;1.87;;;23.50;52.60;;;;;;4949376;28;20492;-82
2023/04/22 10:01:14;;;;;;;2.37;2.17;;;24.40;51.30;;;;;;4928962;28;20469;-84
2023/04/22 10:04:12;;;;;;;2.20;1.80;;;24.80;50.30;;;;;;4922728;28;20504;-84
2023/04/22 10:07:02;;;;;;;3.80;2.33;;;25.40;50.30;;;;;;4952552;28;20472;-82
2023/04/22 10:09:47;;;;;;;2.50;2.30;;;25.50;50.90;;;;;;4977638;28;20451;-83
2023/04/22 10:12:37;;;;;;;2.53;2.10;;;25.10;51.70;;;;;;4975358;28;20475;-82
2023/04/22 10:15:24;;;;;;;9.33;3.70;;;24.60;52.70;;;;;;4977102;28;21020;-83
2023/04/22 10:18:25;;;;;;;2.60;2.40;;;24.20;53.50;;;;;;4944846;28;20464;-84
2023/04/22 10:21:05;;;;;;;1.80;1.70;;;23.80;52.30;;;;;;4942324;28;20479;-82
2023/04/22 10:24:11;;;;;;;2.23;2.03;;;23.90;51.80;;;;;;4957189;28;20468;-81
2023/04/22 10:26:42;;;;;;;1.80;1.70;;;24.30;51.40;;;;;;4959339;28;20464;-85
2023/04/22 10:29:37;;;;;;;2.57;2.33;;;24.80;51.00;;;;;;4944941;28;20464;-83
2023/04/22 10:32:17;;;;;;;2.53;2.33;;;25.70;49.10;;;;;;4946358;28;20461;-81
2023/04/22 10:35:28;;;;;;;2.90;2.50;;;25.50;48.90;;;;;;4959874;28;20504;-82
2023/04/22 10:38:02;;;;;;;3.57;2.43;;;25.90;48.70;;;;;;4920755;29;20477;-81
2023/04/22 10:40:35;;;;;;;2.40;2.20;;;25.80;48.90;;;;;;4909068;29;20462;-82
2023/04/22 10:43:05;;;;;;;2.60;2.40;;;25.90;48.90;;;;;;4937698;28;20492;-81
2023/04/22 10:45:50;;;;;;;3.40;1.97;;;26.20;48.40;;;;;;4946620;28;20548;-84
2023/04/22 10:48:59;;;;;;;2.07;1.87;;;25.80;49.20;;;;;;4950494;28;20556;-84
2023/04/22 10:51:38;;;;;;;2.00;1.90;;;25.60;49.30;;;;;;4968079;28;20556;-83
2023/04/22 10:54:29;;;;;;;1.87;1.77;;;26.10;49.10;;;;;;4956333;28;20457;-85
2023/04/22 10:57:38;;;;;;;;;;;;;;;;;;;;;
2023/04/22 11:01:06;;;;;;;;;;;;;;;;;;;;;
2023/04/22 11:04:17;;;;;;;2.07;1.93;;;25.50;49.30;;;;;;4938463;28;20500;-82
2023/04/22 11:11:00;;;;;;;;;;;;;;;;;;;;;
2023/04/22 11:14:16;;;;;;;2.70;2.03;;;23.50;52.00;;;;;;4941125;28;20487;-82
2023/04/22 11:17:41;;;;;;;2.67;2.20;;;22.80;53.30;;;;;;4930702;28;20477;-84
2023/04/22 11:20:43;;;;;;;2.67;2.47;;;23.00;53.70;;;;;;4956697;28;20468;-83
2023/04/22 11:24:19;;;;;;;2.73;2.30;;;23.40;53.30;;;;;;4938856;28;21095;-83
2023/04/22 11:27:06;;;;;;;2.20;2.00;;;23.50;53.70;;;;;;4941691;28;20491;-82
2023/04/22 11:29:41;;;;;;;2.47;2.27;;;24.00;52.70;;;;;;4944965;28;20474;-83
2023/04/22 11:32:34;;;;;;;2.53;2.13;;;24.20;52.10;;;;;;4953293;28;20464;-83
2023/04/22 11:35:20;;;;;;;3.20;2.70;;;23.80;52.70;;;;;;4987224;28;20457;-82
2023/04/22 11:38:18;;;;;;;2.30;2.10;;;23.50;53.30;;;;;;4957377;29;20460;-84
2023/04/22 11:41:25;;;;;;;3.20;2.37;;;23.40;53.60;;;;;;4951743;29;20480;-82
2023/04/22 11:44:38;;;;;;;2.87;2.67;;;23.40;53.80;;;;;;4959313;29;20417;-83
2023/04/22 11:47:40;;;;;;;2.80;2.30;;;23.80;53.50;;;;;;4900614;29;20513;-84
2023/04/22 11:54:40;;;;;;;2.67;2.37;;;23.70;53.90;;;;;;4926854;29;20892;-83
2023/04/22 11:57:37;;;;;;;2.47;2.27;;;23.40;54.20;;;;;;4915818;29;20475;-83
2023/04/22 12:00:24;;;;;;;3.23;2.90;;;23.30;54.80;;;;;;4930284;29;20550;-81
2023/04/22 12:03:53;;;;;;;2.50;2.30;;;23.20;55.10;;;;;;4913455;29;20478;-81
2023/04/22 12:06:35;;;;;;;3.60;2.20;;;23.00;55.40;;;;;;4877177;29;20491;-81
2023/04/22 12:09:34;;;;;;;2.47;2.27;;;23.30;55.40;;;;;;4860910;29;20517;-83
2023/04/22 12:12:56;;;;;;;2.53;2.33;;;23.60;55.00;;;;;;4952896;29;20441;-84
2023/04/22 12:15:51;;;;;;;2.33;2.17;;;23.70;54.30;;;;;;4949454;28;20708;-85
2023/04/22 12:18:51;;;;;;;2.70;2.50;;;23.50;54.50;;;;;;4955541;28;20480;-83
2023/04/22 12:21:43;;;;;;;4.00;3.60;;;23.70;54.80;;;;;;4972088;28;20468;-82
2023/04/22 12:24:52;;;;;;;4.97;3.70;;;23.50;55.00;;;;;;4949083;28;20457;-84
2023/04/22 12:27:36;;;;;;;3.40;2.43;;;23.20;55.60;;;;;;4963449;29;20500;-82
2023/04/22 12:30:19;;;;;;;2.80;2.60;;;23.10;56.10;;;;;;4968577;28;20887;-82
2023/04/22 12:33:14;;;;;;;2.77;2.40;;;23.00;56.80;;;;;;4960721;29;20508;-84
2023/04/22 12:36:00;;;;;;;3.10;2.87;;;22.90;56.90;;;;;;4961061;28;20437;-83
2023/04/22 12:38:53;;;;;;;3.57;2.90;;;23.00;57.00;;;;;;4983046;28;20979;-83
2023/04/22 12:45:15;;;;;;;2.50;2.30;;;22.90;57.80;;;;;;4901977;29;20435;-83
2023/04/22 12:48:07;;;;;;;3.67;2.90;;;23.10;57.80;;;;;;4888567;29;20559;-82
2023/04/22 12:51:07;;;;;;;3.00;2.70;;;22.90;57.80;;;;;;4885167;29;20468;-82
2023/04/22 12:57:24;;;;;;;3.00;2.57;;;22.90;58.30;;;;;;4905289;29;20562;-83
2023/04/22 13:00:20;;;;;;;6.00;2.50;;;22.90;58.60;;;;;;4884773;29;20499;-83
2023/04/22 13:03:23;;;;;;;3.10;2.90;;;22.70;58.80;;;;;;4889305;29;21033;-80
2023/04/22 13:06:55;;;;;;;2.57;2.37;;;22.80;59.10;;;;;;4905511;29;20443;-82
2023/04/22 13:09:38;;;;;;;4.40;2.10;;;22.80;59.10;;;;;;4901196;29;20514;-82
2023/04/22 13:12:48;;;;;;;3.40;2.37;;;22.80;58.70;;;;;;4886972;29;20514;-82
2023/04/22 13:15:35;;;;;;;2.33;2.17;;;22.80;58.90;;;;;;4905731;29;20463;-83
2023/04/22 13:19:17;;;;;;;2.70;2.50;;;22.70;59.30;;;;;;4916729;28;20486;-82
2023/04/22 13:25:50;;;;;;;;;;;;;;;;;;;;;
2023/04/22 13:28:53;;;;;;;2.20;2.00;;;21.90;59.30;;;;;;4933660;29;20474;-85
2023/04/22 13:31:50;;;;;;;2.33;2.13;;;21.70;60.30;;;;;;4950913;29;20450;-81
2023/04/22 13:34:41;;;;;;;2.20;2.00;;;21.80;60.70;;;;;;4953062;29;20508;-82
2023/04/22 13:40:47;;;;;;;2.40;2.17;;;21.50;62.80;;;;;;4973670;29;20441;-82
2023/04/22 13:43:43;;;;;;;2.80;2.10;;;21.20;64.30;;;;;;4984008;28;21428;-82
2023/04/22 13:46:44;;;;;;;1.80;1.70;;;21.30;65.10;;;;;;4960185;28;20472;-83
2023/04/22 13:49:31;;;;;;;2.70;1.90;;;21.40;65.30;;;;;;4976084;28;20495;-82
2023/04/22 13:52:24;;;;;;;2.87;2.03;;;21.40;64.10;;;;;;4980932;28;20560;-83
2023/04/22 13:55:32;;;;;;;3.00;2.70;;;21.30;63.90;;;;;;4981688;28;20432;-83
2023/04/22 13:58:20;;;;;;;3.30;2.40;;;21.40;64.50;;;;;;4955031;29;20527;-82
2023/04/22 14:01:09;;;;;;;3.20;2.10;;;21.30;65.10;;;;;;4959652;29;20464;-82
2023/04/22 14:03:54;;;;;;;2.10;2.00;;;21.30;65.10;;;;;;4982657;28;20488;-83
2023/04/22 14:07:13;;;;;;;3.03;2.50;;;21.20;65.90;;;;;;4967657;28;20441;-83
2023/04/22 14:10:14;;;;;;;3.50;3.20;;;21.10;65.70;;;;;;4983574;28;20469;-84
2023/04/22 14:16:40;;;;;;;2.90;2.57;;;21.30;64.70;;;;;;4926373;29;20475;-83
2023/04/22 14:19:36;;;;;;;3.13;2.30;;;21.20;64.40;;;;;;4867307;29;20469;-82
2023/04/22 14:22:48;;;;;;;2.83;2.27;;;21.10;65.10;;;;;;4840914;29;20490;-83
2023/04/22 14:25:54;;;;;;;2.80;2.60;;;21.10;65.10;;;;;;4844998;29;20435;-84
2023/04/22 14:28:57;;;;;;;3.80;2.50;;;21.00;66.10;;;;;;4832886;29;20466;-82
2023/04/22 14:31:58;;;;;;;3.37;2.47;;;21.10;66.90;;;;;;4882820;29;20436;-81
2023/04/22 14:35:35;;;;;;;2.90;2.60;;;21.10;67.40;;;;;;4899047;29;20499;-81
2023/04/22 14:38:16;;;;;;;1.97;1.87;;;21.00;68.80;;;;;;4897816;29;20502;-82
2023/04/22 14:41:25;;;;;;;2.77;2.27;;;21.00;69.60;;;;;;4883047;29;20469;-82
2023/04/22 14:44:25;;;;;;;2.83;2.57;;;20.90;69.70;;;;;;4892585;29;20508;-83
2023/04/22 14:47:01;;;;;;;2.33;2.13;;;21.00;69.50;;;;;;4886884;29;20475;-82
2023/04/22 14:50:19;;;;;;;;;;;;;;;;;;;;;
2023/04/22 14:53:33;;;;;;;2.63;2.17;;;20.80;68.80;;;;;;4906476;29;20457;-83
2023/04/22 14:56:37;;;;;;;2.33;1.93;;;21.00;68.10;;;;;;4961935;29;20456;-82
2023/04/22 14:59:34;;;;;;;2.67;1.90;;;21.20;67.80;;;;;;4940320;29;20529;-83
2023/04/22 15:02:31;;;;;;;3.10;2.90;;;21.20;68.00;;;;;;4909272;29;20538;-84
2023/04/22 15:05:31;;;;;;;3.30;2.23;;;20.90;69.70;;;;;;4921725;29;20458;-82
2023/04/22 15:08:30;;;;;;;3.27;2.10;;;20.70;71.60;;;;;;4948299;29;20545;-83
2023/04/22 15:11:56;;;;;;;2.93;1.63;;;20.50;75.00;;;;;;4936774;29;21188;-83
2023/04/22 15:14:42;;;;;;;1.90;1.80;;;20.30;75.80;;;;;;4940110;29;20453;-82
2023/04/22 15:17:57;;;;;;;2.23;2.00;;;20.20;77.70;;;;;;4939048;29;20489;-82
2023/04/22 15:24:25;;;;;;;2.10;2.00;;;20.00;79.60;;;;;;4924479;29;20481;-81